createdAt,value
2023-11-16T00:00:47.166Z,14.23
2023-11-16T00:03:38.954Z,26.35
2023-11-16T00:06:11.952Z,18.63
2023-11-16T00:08:40.946Z,22.20
2023-11-16T00:11:10.164Z,17.83
2023-11-16T00:13:39.050Z,20.27
2023-11-16T00:17:18.494Z,10.70
2023-11-16T00:19:51.178Z,18.73
2023-11-16T00:22:20.406Z,25.60
2023-11-16T00:24:49.348Z,30.30
2023-11-16T00:27:19.635Z,28.40
2023-11-16T00:29:50.263Z,16.45
2023-11-16T00:32:21.631Z,11.40
2023-11-16T00:34:51.703Z,15.98
2023-11-16T00:37:21.088Z,10.75
2023-11-16T00:39:50.751Z,12.13
2023-11-16T00:42:20.059Z,12.10
2023-11-16T00:44:49.151Z,12.88
2023-11-16T00:47:20.034Z,9.32
2023-11-16T00:49:48.815Z,17.67
2023-11-16T00:52:21.481Z,37.25
2023-11-16T00:54:50.478Z,22.08
2023-11-16T00:57:21.740Z,13.18
2023-11-16T00:59:51.005Z,25.88
2023-11-16T01:02:23.082Z,16.20
2023-11-16T01:04:51.747Z,10.55
2023-11-16T01:07:22.896Z,8.90
2023-11-16T01:09:52.231Z,11.88
2023-11-16T01:12:21.478Z,9.80
2023-11-16T01:14:54.115Z,12.40
2023-11-16T01:17:28.106Z,10.48
2023-11-16T01:19:58.322Z,8.43
2023-11-16T01:22:41.861Z,11.15
2023-11-16T01:25:16.892Z,10.82
2023-11-16T01:27:52.554Z,12.48
2023-11-16T01:30:21.381Z,6.75
2023-11-16T01:32:50.480Z,10.95
2023-11-16T01:35:20.736Z,9.13
2023-11-16T01:37:53.525Z,8.23
2023-11-16T01:40:28.992Z,9.32
2023-11-16T01:42:58.985Z,12.50
2023-11-16T01:45:32.539Z,7.78
2023-11-16T01:48:03.756Z,43.42
2023-11-16T01:50:34.249Z,12.27
2023-11-16T01:53:10.747Z,7.47
2023-11-16T01:55:42.196Z,10.95
2023-11-16T01:58:13.721Z,6.38
2023-11-16T02:00:44.565Z,7.10
2023-11-16T02:03:16.282Z,7.70
2023-11-16T02:05:48.411Z,11.80
2023-11-16T02:08:21.623Z,15.25
2023-11-16T02:10:50.569Z,15.57
2023-11-16T02:13:22.109Z,8.70
2023-11-16T02:15:51.813Z,17.95
2023-11-16T02:18:21.261Z,18.60
2023-11-16T02:20:50.860Z,15.77
2023-11-16T02:23:25.013Z,14.98
2023-11-16T02:25:56.159Z,7.05
2023-11-16T02:28:28.153Z,7.30
2023-11-16T02:30:59.104Z,9.68
2023-11-16T02:33:29.008Z,8.43
2023-11-16T02:35:58.732Z,8.70
2023-11-16T02:38:29.434Z,7.10
2023-11-16T02:41:00.668Z,7.40
2023-11-16T02:43:31.013Z,9.57
2023-11-16T02:45:59.824Z,9.70
2023-11-16T02:48:29.149Z,9.30
2023-11-16T02:50:58.495Z,14.75
2023-11-16T02:53:33.826Z,9.90
2023-11-16T02:56:04.622Z,7.60
2023-11-16T02:58:34.912Z,11.52
2023-11-16T03:01:04.109Z,7.50
2023-11-16T03:03:33.525Z,8.07
2023-11-16T03:06:04.958Z,9.02
2023-11-16T03:08:35.401Z,8.13
2023-11-16T03:11:06.963Z,6.47
2023-11-16T03:13:36.177Z,10.95
2023-11-16T03:16:07.471Z,14.70
2023-11-16T03:18:37.196Z,8.43
2023-11-16T03:21:07.276Z,8.38
2023-11-16T03:23:37.498Z,6.13
2023-11-16T03:26:07.217Z,7.20
2023-11-16T03:28:37.345Z,7.72
2023-11-16T03:33:38.603Z,12.40
2023-11-16T03:36:08.029Z,28.63
2023-11-16T03:38:39.000Z,35.03
2023-11-16T03:41:07.889Z,33.40
2023-11-16T03:43:36.817Z,24.75
2023-11-16T03:46:09.897Z,22.55
2023-11-16T03:48:39.536Z,18.73
2023-11-16T03:51:08.802Z,12.30
2023-11-16T03:53:40.046Z,16.05
2023-11-16T03:56:11.342Z,17.23
2023-11-16T03:58:40.475Z,16.35
2023-11-16T04:01:10.146Z,33.70
2023-11-16T04:03:39.608Z,25.25
2023-11-16T04:06:09.564Z,23.27
2023-11-16T04:08:40.724Z,19.13
2023-11-16T04:11:11.271Z,14.35
2023-11-16T04:13:40.348Z,21.77
2023-11-16T04:16:21.734Z,19.73
2023-11-16T04:18:51.683Z,23.63
2023-11-16T04:21:21.286Z,13.48
2023-11-16T04:26:23.293Z,33.30
2023-11-16T04:28:56.548Z,12.25
2023-11-16T04:31:28.064Z,8.95
2023-11-16T04:34:00.609Z,11.32
2023-11-16T04:36:33.330Z,10.07
2023-11-16T04:39:05.190Z,9.15
2023-11-16T04:41:41.175Z,9.15
2023-11-16T04:44:10.916Z,12.38
2023-11-16T04:46:47.469Z,10.32
2023-11-16T04:49:17.526Z,15.02
2023-11-16T04:54:35.270Z,13.82
2023-11-16T04:57:19.250Z,16.27
2023-11-16T05:00:11.264Z,11.88
2023-11-16T05:02:40.870Z,12.43
2023-11-16T05:05:12.257Z,9.07
2023-11-16T05:07:41.589Z,12.68
2023-11-16T05:10:12.927Z,13.25
2023-11-16T05:12:41.987Z,16.63
2023-11-16T05:15:12.372Z,10.93
2023-11-16T05:17:41.615Z,12.30
2023-11-16T05:20:11.602Z,15.13
2023-11-16T05:22:40.217Z,18.05
2023-11-16T05:25:11.676Z,14.70
2023-11-16T05:27:42.087Z,18.23
2023-11-16T05:30:18.232Z,13.30
2023-11-16T05:35:21.101Z,8.23
2023-11-16T05:37:50.057Z,9.82
2023-11-16T05:40:20.362Z,10.50
2023-11-16T05:42:50.671Z,12.20
2023-11-16T05:45:20.135Z,11.00
2023-11-16T05:47:50.171Z,7.28
2023-11-16T05:50:25.598Z,8.80
2023-11-16T05:52:54.748Z,6.95
2023-11-16T05:55:27.499Z,8.35
2023-11-16T05:58:02.587Z,7.53
2023-11-16T06:00:33.030Z,6.25
2023-11-16T06:03:02.297Z,10.88
2023-11-16T06:05:32.262Z,6.78
2023-11-16T06:08:01.763Z,10.20
2023-11-16T06:10:31.685Z,9.75
2023-11-16T06:13:02.522Z,10.43
2023-11-16T06:15:31.936Z,12.05
2023-11-16T06:18:02.673Z,10.93
2023-11-16T06:20:32.490Z,9.43
2023-11-16T06:23:01.055Z,9.25
2023-11-16T06:25:30.253Z,9.35
2023-11-16T06:27:59.465Z,13.63
2023-11-16T06:30:30.618Z,11.48
2023-11-16T06:32:59.356Z,8.40
2023-11-16T06:35:28.289Z,9.43
2023-11-16T06:37:57.943Z,9.93
2023-11-16T06:40:26.940Z,7.65
2023-11-16T06:42:58.178Z,6.80
2023-11-16T06:45:28.417Z,5.47
2023-11-16T06:50:35.333Z,8.63
2023-11-16T06:53:06.759Z,11.02
2023-11-16T06:55:35.897Z,9.63
2023-11-16T06:58:08.015Z,14.93
2023-11-16T07:00:39.969Z,8.00
2023-11-16T07:03:11.082Z,10.27
2023-11-16T07:05:40.209Z,7.75
2023-11-16T07:08:09.430Z,8.43
2023-11-16T07:10:38.689Z,7.45
2023-11-16T07:13:07.723Z,7.63
2023-11-16T07:15:38.918Z,8.23
2023-11-16T07:18:09.152Z,7.90
2023-11-16T07:20:44.612Z,8.25
2023-11-16T07:23:13.907Z,8.85
2023-11-16T07:25:45.347Z,9.23
2023-11-16T07:28:15.382Z,13.57
2023-11-16T07:30:47.154Z,16.55
2023-11-16T07:33:16.715Z,10.85
2023-11-16T07:35:48.297Z,8.32
2023-11-16T07:38:20.021Z,8.70
2023-11-16T07:40:49.190Z,8.52
2023-11-16T07:43:18.016Z,8.25
2023-11-16T07:45:49.339Z,9.23
2023-11-16T07:48:18.553Z,8.65
2023-11-16T07:53:18.295Z,6.47
2023-11-16T07:55:50.585Z,6.40
2023-11-16T07:58:27.911Z,6.28
2023-11-16T08:01:05.479Z,6.28
2023-11-16T08:03:45.758Z,5.25
2023-11-16T08:06:17.858Z,8.73
2023-11-16T08:08:48.532Z,7.78
2023-11-16T08:11:17.967Z,15.32
2023-11-16T08:13:47.472Z,17.63
2023-11-16T08:16:22.655Z,18.90
2023-11-16T08:18:51.678Z,18.15
2023-11-16T08:21:22.611Z,19.23
2023-11-16T08:23:52.528Z,17.73
2023-11-16T08:26:24.907Z,16.92
2023-11-16T08:28:56.146Z,18.10
2023-11-16T08:31:28.176Z,9.52
2023-11-16T08:33:56.911Z,17.70
2023-11-16T08:36:27.943Z,19.80
2023-11-16T08:38:57.545Z,6.57
2023-11-16T08:41:27.332Z,7.95
2023-11-16T08:43:56.780Z,7.03
2023-11-16T08:46:32.306Z,9.63
2023-11-16T08:49:01.177Z,3.92
2023-11-16T08:51:31.903Z,3.15
2023-11-16T09:13:42.737Z,3.50
2023-11-16T09:16:11.852Z,3.05
2023-11-16T09:18:43.199Z,2.55
2023-11-16T09:21:16.400Z,2.75
2023-11-16T09:23:45.353Z,2.70
2023-11-16T09:26:14.294Z,2.65
2023-11-16T09:28:57.917Z,2.70
2023-11-16T09:31:31.012Z,3.25
2023-11-16T09:34:01.872Z,2.25
2023-11-16T09:36:31.304Z,1.90
2023-11-16T09:39:00.830Z,2.03
2023-11-16T09:41:30.123Z,2.67
2023-11-16T09:44:03.321Z,2.60
2023-11-16T09:46:33.629Z,2.40
2023-11-16T09:49:07.479Z,2.40
2023-11-16T09:51:40.771Z,2.28
2023-11-16T09:54:11.230Z,2.50
2023-11-16T09:56:47.468Z,2.25
2023-11-16T09:59:28.895Z,2.25
2023-11-16T10:02:11.312Z,2.08
2023-11-16T10:04:43.330Z,1.80
2023-11-16T10:07:19.774Z,2.60
2023-11-16T10:09:48.983Z,3.55
2023-11-16T10:12:18.617Z,1.95
2023-11-16T10:14:53.130Z,2.50
2023-11-16T10:17:26.599Z,2.15
2023-11-16T10:19:55.460Z,2.20
2023-11-16T10:22:24.443Z,5.53
2023-11-16T10:24:56.918Z,1.98
2023-11-16T10:27:33.825Z,2.13
2023-11-16T10:30:05.716Z,2.20
2023-11-16T10:32:37.858Z,2.40
2023-11-16T10:35:12.549Z,1.90
2023-11-16T10:37:46.028Z,1.98
2023-11-16T10:40:15.246Z,2.05
2023-11-16T10:42:47.070Z,1.80
2023-11-16T10:45:31.454Z,3.00
2023-11-16T10:48:06.671Z,2.90
2023-11-16T10:50:35.864Z,2.78
2023-11-16T10:53:08.447Z,2.50
2023-11-16T10:55:38.433Z,2.33
2023-11-16T10:58:07.505Z,2.40
2023-11-16T11:00:40.729Z,2.67
2023-11-16T11:03:12.312Z,2.85
2023-11-16T11:05:43.382Z,3.60
2023-11-16T11:08:19.025Z,3.22
2023-11-16T11:10:48.794Z,3.40
2023-11-16T11:13:28.003Z,4.25
2023-11-16T11:15:58.993Z,3.60
2023-11-16T11:18:29.335Z,4.32
2023-11-16T11:21:09.308Z,3.85
2023-11-16T11:23:39.672Z,5.75
2023-11-16T11:26:09.146Z,6.10
2023-11-16T11:28:40.193Z,4.00
2023-11-16T11:31:12.298Z,3.70
2023-11-16T11:33:43.600Z,3.63
2023-11-16T11:36:23.903Z,3.30
2023-11-16T11:38:54.765Z,4.07
2023-11-16T11:41:25.306Z,4.00
2023-11-16T11:43:54.644Z,4.10
2023-11-16T11:46:24.636Z,4.45
2023-11-16T11:48:55.492Z,3.92
2023-11-16T11:51:29.913Z,4.60
2023-11-16T11:53:58.993Z,3.92
2023-11-16T11:56:28.291Z,4.55
2023-11-16T11:58:59.840Z,4.07
2023-11-16T12:01:29.851Z,4.00
2023-11-16T12:04:10.185Z,4.28
2023-11-16T12:06:45.896Z,3.60
2023-11-16T12:11:45.616Z,3.85
2023-11-16T12:14:15.590Z,6.07
2023-11-16T12:19:23.331Z,4.65
2023-11-16T12:21:53.024Z,6.13
2023-11-16T12:24:25.884Z,5.07
2023-11-16T12:26:54.798Z,4.57
2023-11-16T12:29:28.152Z,5.28
2023-11-16T12:32:01.141Z,4.95
2023-11-16T12:34:30.223Z,5.03
2023-11-16T12:36:59.787Z,5.55
2023-11-16T12:39:29.021Z,5.90
2023-11-16T12:41:58.567Z,5.43
2023-11-16T12:44:27.761Z,5.13
2023-11-16T12:46:59.283Z,4.95
2023-11-16T12:49:28.819Z,5.78
2023-11-16T12:51:58.082Z,5.45
2023-11-16T12:54:27.249Z,5.75
2023-11-16T12:56:56.882Z,5.22
2023-11-16T12:59:25.904Z,6.00
2023-11-16T13:01:54.832Z,5.63
2023-11-16T13:04:26.626Z,5.80
2023-11-16T13:06:57.003Z,6.20
2023-11-16T13:09:26.381Z,6.30
2023-11-16T13:12:02.591Z,7.70
2023-11-16T13:14:37.589Z,7.35
2023-11-16T13:17:06.447Z,8.30
2023-11-16T13:19:37.308Z,7.65
2023-11-16T13:22:06.326Z,7.68
2023-11-16T13:24:35.412Z,7.00
2023-11-16T13:27:06.795Z,7.32
2023-11-16T13:29:40.371Z,6.68
2023-11-16T13:32:12.090Z,6.22
2023-11-16T13:34:44.629Z,6.57
2023-11-16T13:37:13.278Z,7.47
2023-11-16T13:39:45.219Z,6.75
2023-11-16T13:42:14.352Z,5.78
2023-11-16T13:44:43.890Z,6.30
2023-11-16T13:47:12.679Z,5.80
2023-11-16T13:49:45.030Z,16.17
2023-11-16T13:52:14.206Z,5.63
2023-11-16T13:57:15.201Z,5.28
2023-11-16T13:59:46.372Z,4.93
2023-11-16T14:02:18.341Z,5.20
2023-11-16T14:04:49.080Z,4.82
2023-11-16T14:07:18.158Z,4.85
2023-11-16T14:09:47.244Z,5.32
2023-11-16T14:12:15.996Z,5.60
2023-11-16T14:14:45.247Z,6.32
2023-11-16T14:17:14.815Z,6.10
2023-11-16T14:19:43.844Z,4.85
2023-11-16T14:22:14.380Z,5.72
2023-11-16T14:24:47.498Z,7.70
2023-11-16T14:27:16.227Z,5.88
2023-11-16T14:29:45.865Z,7.35
2023-11-16T14:32:14.810Z,5.70
2023-11-16T14:34:44.475Z,8.75
2023-11-16T14:37:15.155Z,7.90
2023-11-16T14:39:44.588Z,7.40
2023-11-16T14:42:13.483Z,7.28
2023-11-16T14:44:42.700Z,8.25
2023-11-16T14:47:13.736Z,8.45
2023-11-16T14:49:44.739Z,6.93
2023-11-16T14:52:17.412Z,9.10
2023-11-16T14:54:48.128Z,8.55
2023-11-16T14:57:17.020Z,10.10
2023-11-16T14:59:47.052Z,9.23
2023-11-16T15:02:16.220Z,9.48
2023-11-16T15:04:46.143Z,9.32
2023-11-16T15:07:18.621Z,8.35
2023-11-16T15:09:47.869Z,9.57
2023-11-16T15:12:17.119Z,10.85
2023-11-16T15:14:46.819Z,12.02
2023-11-16T15:17:15.729Z,10.73
2023-11-16T15:19:45.134Z,12.02
2023-11-16T15:22:13.854Z,13.48
2023-11-16T15:24:44.484Z,9.73
2023-11-16T15:27:14.125Z,8.82
2023-11-16T15:29:47.008Z,9.45
2023-11-16T15:32:19.461Z,12.55
2023-11-16T15:34:51.090Z,15.07
2023-11-16T15:37:22.032Z,12.68
2023-11-16T15:39:54.623Z,10.57
2023-11-16T15:42:27.313Z,8.95
2023-11-16T15:44:56.718Z,8.65
2023-11-16T15:47:25.555Z,16.50
2023-11-16T15:49:54.900Z,13.00
2023-11-16T15:52:24.511Z,11.48
2023-11-16T15:54:55.275Z,10.48
2023-11-16T15:57:27.752Z,10.40
2023-11-16T15:59:59.111Z,10.05
2023-11-16T16:02:30.815Z,11.48
2023-11-16T16:05:01.665Z,9.30
2023-11-16T16:07:33.322Z,9.15
2023-11-16T16:10:06.639Z,9.43
2023-11-16T16:12:36.102Z,9.40
2023-11-16T16:15:07.562Z,9.60
2023-11-16T16:17:36.921Z,14.25
2023-11-16T16:20:07.229Z,10.90
2023-11-16T16:22:36.445Z,9.10
2023-11-16T16:25:12.830Z,9.52
2023-11-16T16:27:41.657Z,10.32
2023-11-16T16:30:14.940Z,10.00
2023-11-16T16:32:44.769Z,12.30
2023-11-16T16:35:14.213Z,7.03
2023-11-16T16:37:42.945Z,8.75
2023-11-16T16:40:16.115Z,8.88
2023-11-16T16:42:46.078Z,9.48
2023-11-16T16:45:16.667Z,9.50
2023-11-16T16:47:52.945Z,9.40
2023-11-16T16:50:28.684Z,8.68
2023-11-16T16:52:57.334Z,11.05
2023-11-16T16:55:27.962Z,10.63
2023-11-16T16:57:56.716Z,10.48
2023-11-16T17:00:27.935Z,8.07
2023-11-16T17:02:56.820Z,9.90
2023-11-16T17:05:25.829Z,12.05
2023-11-16T17:07:54.735Z,7.85
2023-11-16T17:10:28.283Z,8.52
2023-11-16T17:12:58.444Z,7.68
2023-11-16T17:15:32.110Z,9.27
2023-11-16T17:18:01.414Z,10.32
2023-11-16T17:20:32.351Z,10.07
2023-11-16T17:23:01.069Z,11.88
2023-11-16T17:25:36.196Z,9.75
2023-11-16T17:28:09.821Z,9.55
2023-11-16T17:30:39.536Z,11.02
2023-11-16T17:33:11.215Z,11.05
2023-11-16T17:35:43.396Z,9.63
2023-11-16T17:38:12.006Z,11.95
2023-11-16T17:40:42.932Z,10.30
2023-11-16T17:43:13.390Z,10.68
2023-11-16T17:45:42.539Z,12.55
2023-11-16T17:48:12.535Z,11.60
2023-11-16T17:50:42.594Z,11.68
2023-11-16T17:53:13.222Z,10.38
2023-11-16T17:55:44.134Z,10.60
2023-11-16T17:58:15.425Z,10.98
2023-11-16T18:00:44.906Z,12.50
2023-11-16T18:03:13.997Z,8.13
2023-11-16T18:05:43.566Z,11.88
2023-11-16T18:08:13.260Z,11.45
2023-11-16T18:10:45.441Z,11.13
2023-11-16T18:13:18.595Z,11.48
2023-11-16T18:15:48.090Z,10.15
2023-11-16T18:18:19.431Z,12.45
2023-11-16T18:20:50.720Z,13.35
2023-11-16T18:23:21.204Z,12.38
2023-11-16T18:25:50.730Z,14.05
2023-11-16T18:28:21.113Z,13.13
2023-11-16T18:30:53.137Z,13.68
2023-11-16T18:33:22.954Z,13.65
2023-11-16T18:35:55.344Z,14.18
2023-11-16T18:38:25.349Z,13.88
2023-11-16T18:40:54.814Z,14.10
2023-11-16T18:43:26.288Z,14.43
2023-11-16T18:45:56.644Z,13.40
2023-11-16T18:48:27.280Z,17.02
2023-11-16T18:50:56.584Z,14.05
2023-11-16T18:53:25.560Z,14.60
2023-11-16T18:55:59.287Z,14.50
2023-11-16T18:58:30.142Z,14.82
2023-11-16T19:01:00.028Z,16.45
2023-11-16T19:03:29.365Z,13.63
2023-11-16T19:05:58.807Z,15.07
2023-11-16T19:08:27.604Z,14.05
2023-11-16T19:10:56.836Z,14.73
2023-11-16T19:13:27.824Z,15.65
2023-11-16T19:15:59.140Z,15.32
2023-11-16T19:18:28.460Z,13.00
2023-11-16T19:20:58.663Z,14.55
2023-11-16T19:23:28.444Z,15.02
2023-11-16T19:25:59.820Z,14.68
2023-11-16T19:28:30.152Z,13.77
2023-11-16T19:31:01.969Z,15.52
2023-11-16T19:33:31.272Z,16.17
2023-11-16T19:36:00.417Z,15.50
2023-11-16T19:38:31.507Z,15.50
2023-11-16T19:41:01.997Z,16.38
2023-11-16T19:46:04.888Z,20.70
2023-11-16T19:48:34.562Z,17.27
2023-11-16T19:51:07.271Z,15.95
2023-11-16T19:53:36.394Z,16.92
2023-11-16T19:56:07.276Z,16.70
2023-11-16T19:58:36.035Z,17.08
2023-11-16T20:01:07.182Z,16.05
2023-11-16T20:03:36.324Z,14.63
2023-11-16T20:06:07.342Z,20.83
2023-11-16T20:08:36.820Z,19.80
2023-11-16T20:11:07.294Z,18.73
2023-11-16T20:13:36.322Z,17.27
2023-11-16T20:16:11.198Z,17.48
2023-11-16T20:18:41.790Z,19.00
2023-11-16T20:21:10.990Z,18.70
2023-11-16T20:23:40.161Z,16.85
2023-11-16T20:26:11.506Z,22.02
2023-11-16T20:28:42.384Z,19.65
2023-11-16T20:31:13.157Z,18.27
2023-11-16T20:33:43.053Z,19.27
2023-11-16T20:36:16.012Z,20.92
2023-11-16T20:38:45.318Z,18.38
2023-11-16T20:46:13.910Z,17.25
2023-11-16T20:48:43.240Z,16.80
2023-11-16T20:53:42.266Z,18.33
2023-11-16T20:56:11.908Z,16.73
2023-11-16T20:58:41.637Z,15.93
2023-11-16T21:01:11.207Z,19.23
2023-11-16T21:03:43.767Z,18.25
2023-11-16T21:06:13.887Z,18.00
2023-11-16T21:08:44.596Z,16.60
2023-11-16T21:11:13.988Z,15.02
2023-11-16T21:13:42.994Z,16.23
2023-11-16T21:16:12.793Z,16.52
2023-11-16T21:18:43.058Z,17.15
2023-11-16T21:21:13.131Z,15.77
2023-11-16T21:23:44.389Z,15.65
2023-11-16T21:26:14.185Z,18.27
2023-11-16T21:28:45.244Z,17.23
2023-11-16T21:31:15.163Z,17.55
2023-11-16T21:33:45.802Z,16.88
2023-11-16T21:36:18.115Z,14.93
2023-11-16T21:38:46.913Z,18.73
2023-11-16T21:41:20.953Z,14.93
2023-11-16T21:43:51.466Z,14.27
2023-11-16T21:46:20.862Z,17.40
2023-11-16T21:48:51.121Z,13.90
2023-11-16T21:51:20.496Z,14.90
2023-11-16T21:53:49.054Z,12.68
2023-11-16T21:56:18.245Z,15.85
2023-11-16T21:58:46.712Z,16.27
2023-11-16T22:01:17.098Z,11.38
2023-11-16T22:03:48.416Z,15.07
2023-11-16T22:06:19.494Z,13.27
2023-11-16T22:08:48.260Z,13.80
2023-11-16T22:11:17.630Z,13.45
2023-11-16T22:13:47.282Z,12.38
2023-11-16T22:16:16.991Z,12.70
2023-11-16T22:18:45.657Z,12.93
2023-11-16T22:21:14.885Z,12.98
2023-11-16T22:23:44.961Z,13.68
2023-11-16T22:26:14.517Z,12.40
2023-11-16T22:28:43.859Z,13.05
2023-11-16T22:31:14.119Z,12.40
2023-11-16T22:36:18.467Z,12.35
2023-11-16T22:38:51.953Z,14.05
2023-11-16T22:41:21.194Z,12.57
2023-11-16T22:43:49.969Z,14.73
2023-11-16T22:46:19.360Z,14.55
2023-11-16T22:48:48.877Z,13.60
2023-11-16T22:51:18.095Z,14.98
2023-11-16T22:53:46.957Z,15.10
2023-11-16T22:56:22.625Z,15.35
2023-11-16T22:58:51.723Z,19.25
2023-11-16T23:01:23.800Z,16.48
2023-11-16T23:03:54.131Z,15.27
2023-11-16T23:06:23.331Z,15.13
2023-11-16T23:08:53.174Z,16.05
2023-11-16T23:11:23.529Z,10.95
2023-11-16T23:13:52.357Z,15.45
2023-11-16T23:16:21.198Z,15.13
2023-11-16T23:18:50.873Z,14.73
2023-11-16T23:21:33.442Z,14.60
2023-11-16T23:24:10.539Z,17.52
2023-11-16T23:26:42.526Z,14.45
2023-11-16T23:29:11.757Z,14.43
2023-11-16T23:31:41.946Z,14.60
2023-11-16T23:34:10.902Z,13.98
2023-11-16T23:36:39.993Z,12.63
2023-11-16T23:39:08.652Z,12.88
2023-11-16T23:41:37.696Z,13.35
2023-11-16T23:44:08.390Z,12.57
2023-11-16T23:46:37.475Z,12.27
2023-11-16T23:49:08.618Z,11.68
2023-11-16T23:51:40.008Z,12.23
2023-11-16T23:54:09.796Z,12.63
2023-11-16T23:56:38.820Z,11.07
2023-11-16T23:59:09.802Z,11.25
